sensor_id;sensor_type;location;lat;lon;timestamp;P1;durP1;ratioP1;P2;durP2;ratioP2
22230;SDS011;11284;48.086;-1.652;2024-03-07T00:02:04;9.77;;;3.72;;
22230;SDS011;11284;48.086;-1.652;2024-03-07T00:04:30;9.25;;;4.28;;
22230;SDS011;11284;48.086;-1.652;2024-03-07T00:06:56;12.30;;;4.32;;
22230;SDS011;11284;48.086;-1.652;2024-03-07T00:09:22;9.38;;;3.63;;
22230;SDS011;11284;48.086;-1.652;2024-03-07T00:11:49;12.32;;;3.85;;
22230;SDS011;11284;48.086;-1.652;2024-03-07T00:14:15;11.98;;;3.58;;
22230;SDS011;11284;48.086;-1.652;2024-03-07T00:16:41;12.77;;;4.20;;
22230;SDS011;11284;48.086;-1.652;2024-03-07T00:19:07;10.68;;;4.28;;
22230;SDS011;11284;48.086;-1.652;2024-03-07T00:21:33;8.68;;;3.90;;
22230;SDS011;11284;48.086;-1.652;2024-03-07T00:23:59;8.35;;;3.33;;
22230;SDS011;11284;48.086;-1.652;2024-03-07T00:26:26;11.10;;;3.83;;
22230;SDS011;11284;48.086;-1.652;2024-03-07T00:28:52;9.13;;;3.80;;
22230;SDS011;11284;48.086;-1.652;2024-03-07T00:31:17;13.00;;;3.85;;
22230;SDS011;11284;48.086;-1.652;2024-03-07T00:33:44;9.77;;;3.60;;
22230;SDS011;11284;48.086;-1.652;2024-03-07T00:36:10;10.07;;;3.83;;
22230;SDS011;11284;48.086;-1.652;2024-03-07T00:38:37;9.27;;;4.03;;
22230;SDS011;11284;48.086;-1.652;2024-03-07T00:41:03;9.70;;;3.42;;
22230;SDS011;11284;48.086;-1.652;2024-03-07T00:43:29;10.68;;;4.20;;
22230;SDS011;11284;48.086;-1.652;2024-03-07T00:45:55;11.18;;;4.15;;
22230;SDS011;11284;48.086;-1.652;2024-03-07T00:48:22;9.60;;;3.70;;
22230;SDS011;11284;48.086;-1.652;2024-03-07T00:50:50;8.18;;;3.83;;
22230;SDS011;11284;48.086;-1.652;2024-03-07T00:53:16;11.80;;;4.05;;
22230;SDS011;11284;48.086;-1.652;2024-03-07T00:55:42;9.95;;;4.30;;
22230;SDS011;11284;48.086;-1.652;2024-03-07T00:58:09;9.38;;;3.65;;
22230;SDS011;11284;48.086;-1.652;2024-03-07T01:00:35;12.55;;;3.55;;
22230;SDS011;11284;48.086;-1.652;2024-03-07T01:03:01;13.05;;;3.83;;
22230;SDS011;11284;48.086;-1.652;2024-03-07T01:05:27;9.35;;;3.90;;
22230;SDS011;11284;48.086;-1.652;2024-03-07T01:07:53;11.50;;;4.03;;
22230;SDS011;11284;48.086;-1.652;2024-03-07T01:10:20;9.57;;;3.78;;
22230;SDS011;11284;48.086;-1.652;2024-03-07T01:12:47;8.50;;;3.85;;
22230;SDS011;11284;48.086;-1.652;2024-03-07T01:15:15;8.73;;;3.63;;
22230;SDS011;11284;48.086;-1.652;2024-03-07T01:17:41;9.25;;;4.25;;
22230;SDS011;11284;48.086;-1.652;2024-03-07T01:20:07;9.10;;;3.80;;
22230;SDS011;11284;48.086;-1.652;2024-03-07T01:22:34;9.32;;;3.72;;
22230;SDS011;11284;48.086;-1.652;2024-03-07T01:25:00;8.48;;;3.83;;
22230;SDS011;11284;48.086;-1.652;2024-03-07T01:27:26;9.65;;;3.60;;
22230;SDS011;11284;48.086;-1.652;2024-03-07T01:29:52;8.65;;;3.70;;
22230;SDS011;11284;48.086;-1.652;2024-03-07T01:32:18;8.43;;;3.63;;
22230;SDS011;11284;48.086;-1.652;2024-03-07T01:34:44;8.80;;;3.67;;
22230;SDS011;11284;48.086;-1.652;2024-03-07T01:37:10;7.90;;;3.28;;
22230;SDS011;11284;48.086;-1.652;2024-03-07T01:39:36;8.60;;;2.92;;
22230;SDS011;11284;48.086;-1.652;2024-03-07T01:42:02;12.60;;;3.60;;
22230;SDS011;11284;48.086;-1.652;2024-03-07T01:44:29;7.85;;;3.10;;
22230;SDS011;11284;48.086;-1.652;2024-03-07T01:46:57;9.15;;;3.20;;
22230;SDS011;11284;48.086;-1.652;2024-03-07T01:49:25;10.52;;;2.90;;
22230;SDS011;11284;48.086;-1.652;2024-03-07T01:51:51;10.57;;;3.10;;
22230;SDS011;11284;48.086;-1.652;2024-03-07T01:54:17;10.60;;;3.00;;
22230;SDS011;11284;48.086;-1.652;2024-03-07T01:56:43;8.45;;;2.97;;
22230;SDS011;11284;48.086;-1.652;2024-03-07T01:59:09;6.63;;;3.13;;
22230;SDS011;11284;48.086;-1.652;2024-03-07T02:01:36;7.78;;;3.38;;
22230;SDS011;11284;48.086;-1.652;2024-03-07T02:04:02;8.60;;;2.90;;
22230;SDS011;11284;48.086;-1.652;2024-03-07T02:06:29;8.65;;;2.90;;
22230;SDS011;11284;48.086;-1.652;2024-03-07T02:08:55;8.90;;;2.92;;
22230;SDS011;11284;48.086;-1.652;2024-03-07T02:11:22;10.43;;;3.25;;
22230;SDS011;11284;48.086;-1.652;2024-03-07T02:13:48;9.48;;;3.08;;
22230;SDS011;11284;48.086;-1.652;2024-03-07T02:16:14;8.45;;;2.78;;
22230;SDS011;11284;48.086;-1.652;2024-03-07T02:18:40;10.40;;;2.83;;
22230;SDS011;11284;48.086;-1.652;2024-03-07T02:21:07;7.70;;;2.97;;
22230;SDS011;11284;48.086;-1.652;2024-03-07T02:23:36;8.38;;;2.83;;
22230;SDS011;11284;48.086;-1.652;2024-03-07T02:26:03;15.48;;;3.75;;
22230;SDS011;11284;48.086;-1.652;2024-03-07T02:28:29;7.28;;;2.63;;
22230;SDS011;11284;48.086;-1.652;2024-03-07T02:30:55;7.07;;;2.60;;
22230;SDS011;11284;48.086;-1.652;2024-03-07T02:33:21;9.70;;;2.80;;
22230;SDS011;11284;48.086;-1.652;2024-03-07T02:35:48;7.07;;;2.72;;
22230;SDS011;11284;48.086;-1.652;2024-03-07T02:38:14;8.35;;;2.85;;
22230;SDS011;11284;48.086;-1.652;2024-03-07T02:40:40;10.27;;;3.08;;
22230;SDS011;11284;48.086;-1.652;2024-03-07T02:43:06;9.18;;;2.92;;
22230;SDS011;11284;48.086;-1.652;2024-03-07T02:45:32;10.15;;;3.13;;
22230;SDS011;11284;48.086;-1.652;2024-03-07T02:47:58;13.43;;;3.13;;
22230;SDS011;11284;48.086;-1.652;2024-03-07T02:50:24;9.27;;;2.92;;
22230;SDS011;11284;48.086;-1.652;2024-03-07T02:52:50;8.50;;;3.03;;
22230;SDS011;11284;48.086;-1.652;2024-03-07T02:55:17;9.60;;;2.90;;
22230;SDS011;11284;48.086;-1.652;2024-03-07T02:57:44;8.07;;;3.08;;
22230;SDS011;11284;48.086;-1.652;2024-03-07T03:00:13;8.68;;;3.10;;
22230;SDS011;11284;48.086;-1.652;2024-03-07T03:02:46;6.32;;;3.03;;
22230;SDS011;11284;48.086;-1.652;2024-03-07T03:05:13;8.88;;;3.25;;
22230;SDS011;11284;48.086;-1.652;2024-03-07T03:07:39;8.23;;;3.13;;
22230;SDS011;11284;48.086;-1.652;2024-03-07T03:10:06;8.50;;;3.00;;
22230;SDS011;11284;48.086;-1.652;2024-03-07T03:12:36;12.60;;;3.47;;
22230;SDS011;11284;48.086;-1.652;2024-03-07T03:15:02;8.57;;;3.03;;
22230;SDS011;11284;48.086;-1.652;2024-03-07T03:17:31;10.35;;;3.53;;
22230;SDS011;11284;48.086;-1.652;2024-03-07T03:19:57;8.68;;;3.40;;
22230;SDS011;11284;48.086;-1.652;2024-03-07T03:22:23;10.07;;;3.42;;
22230;SDS011;11284;48.086;-1.652;2024-03-07T03:24:49;7.55;;;3.35;;
22230;SDS011;11284;48.086;-1.652;2024-03-07T03:27:14;12.80;;;3.92;;
22230;SDS011;11284;48.086;-1.652;2024-03-07T03:29:40;10.88;;;4.18;;
22230;SDS011;11284;48.086;-1.652;2024-03-07T03:32:06;11.80;;;4.47;;
22230;SDS011;11284;48.086;-1.652;2024-03-07T03:34:33;11.43;;;4.38;;
22230;SDS011;11284;48.086;-1.652;2024-03-07T03:36:59;9.05;;;4.07;;
22230;SDS011;11284;48.086;-1.652;2024-03-07T03:39:25;11.63;;;4.55;;
22230;SDS011;11284;48.086;-1.652;2024-03-07T03:41:52;11.05;;;4.45;;
22230;SDS011;11284;48.086;-1.652;2024-03-07T03:44:18;11.30;;;4.38;;
22230;SDS011;11284;48.086;-1.652;2024-03-07T03:46:44;12.65;;;4.32;;
22230;SDS011;11284;48.086;-1.652;2024-03-07T03:49:10;17.75;;;4.93;;
22230;SDS011;11284;48.086;-1.652;2024-03-07T03:51:36;13.20;;;4.60;;
22230;SDS011;11284;48.086;-1.652;2024-03-07T03:54:02;12.85;;;3.92;;
22230;SDS011;11284;48.086;-1.652;2024-03-07T03:56:28;11.32;;;4.30;;
22230;SDS011;11284;48.086;-1.652;2024-03-07T03:58:54;13.13;;;4.90;;
22230;SDS011;11284;48.086;-1.652;2024-03-07T04:01:20;11.90;;;4.55;;
22230;SDS011;11284;48.086;-1.652;2024-03-07T04:03:46;12.80;;;4.50;;
22230;SDS011;11284;48.086;-1.652;2024-03-07T04:06:12;15.60;;;4.55;;
22230;SDS011;11284;48.086;-1.652;2024-03-07T04:08:38;10.68;;;4.25;;
22230;SDS011;11284;48.086;-1.652;2024-03-07T04:11:04;10.10;;;4.65;;
22230;SDS011;11284;48.086;-1.652;2024-03-07T04:13:34;12.02;;;4.47;;
22230;SDS011;11284;48.086;-1.652;2024-03-07T04:16:00;10.80;;;4.32;;
22230;SDS011;11284;48.086;-1.652;2024-03-07T04:18:26;9.40;;;4.30;;
22230;SDS011;11284;48.086;-1.652;2024-03-07T04:20:52;12.20;;;4.10;;
22230;SDS011;11284;48.086;-1.652;2024-03-07T04:23:19;13.82;;;4.53;;
22230;SDS011;11284;48.086;-1.652;2024-03-07T04:25:45;10.30;;;4.20;;
22230;SDS011;11284;48.086;-1.652;2024-03-07T04:28:11;11.80;;;4.55;;
22230;SDS011;11284;48.086;-1.652;2024-03-07T04:30:37;10.15;;;4.15;;
22230;SDS011;11284;48.086;-1.652;2024-03-07T04:33:03;8.73;;;3.97;;
22230;SDS011;11284;48.086;-1.652;2024-03-07T04:35:30;14.65;;;4.40;;
22230;SDS011;11284;48.086;-1.652;2024-03-07T04:37:56;10.23;;;4.10;;
22230;SDS011;11284;48.086;-1.652;2024-03-07T04:40:22;13.95;;;4.40;;
22230;SDS011;11284;48.086;-1.652;2024-03-07T04:42:48;11.30;;;4.15;;
22230;SDS011;11284;48.086;-1.652;2024-03-07T04:45:15;12.05;;;4.53;;
22230;SDS011;11284;48.086;-1.652;2024-03-07T04:47:42;11.50;;;3.85;;
22230;SDS011;11284;48.086;-1.652;2024-03-07T04:50:09;9.63;;;4.10;;
22230;SDS011;11284;48.086;-1.652;2024-03-07T04:52:39;10.60;;;4.32;;
22230;SDS011;11284;48.086;-1.652;2024-03-07T04:55:05;8.57;;;3.60;;
22230;SDS011;11284;48.086;-1.652;2024-03-07T04:57:38;10.57;;;4.05;;
22230;SDS011;11284;48.086;-1.652;2024-03-07T05:00:09;10.90;;;3.85;;
22230;SDS011;11284;48.086;-1.652;2024-03-07T05:02:39;8.77;;;3.70;;
22230;SDS011;11284;48.086;-1.652;2024-03-07T05:05:05;12.35;;;4.40;;
22230;SDS011;11284;48.086;-1.652;2024-03-07T05:07:31;9.10;;;3.88;;
22230;SDS011;11284;48.086;-1.652;2024-03-07T05:09:57;12.02;;;4.45;;
22230;SDS011;11284;48.086;-1.652;2024-03-07T05:12:23;13.18;;;4.40;;
22230;SDS011;11284;48.086;-1.652;2024-03-07T05:14:49;10.15;;;4.05;;
22230;SDS011;11284;48.086;-1.652;2024-03-07T05:17:15;8.32;;;3.92;;
22230;SDS011;11284;48.086;-1.652;2024-03-07T05:19:44;9.50;;;3.65;;
22230;SDS011;11284;48.086;-1.652;2024-03-07T05:22:11;9.50;;;4.18;;
22230;SDS011;11284;48.086;-1.652;2024-03-07T05:24:40;10.45;;;4.10;;
22230;SDS011;11284;48.086;-1.652;2024-03-07T05:27:07;9.55;;;3.97;;
22230;SDS011;11284;48.086;-1.652;2024-03-07T05:29:36;13.25;;;3.83;;
22230;SDS011;11284;48.086;-1.652;2024-03-07T05:32:19;10.50;;;3.83;;
22230;SDS011;11284;48.086;-1.652;2024-03-07T05:34:45;10.68;;;3.65;;
22230;SDS011;11284;48.086;-1.652;2024-03-07T05:37:11;8.48;;;3.97;;
22230;SDS011;11284;48.086;-1.652;2024-03-07T05:39:38;8.68;;;4.22;;
22230;SDS011;11284;48.086;-1.652;2024-03-07T05:42:04;12.43;;;4.15;;
22230;SDS011;11284;48.086;-1.652;2024-03-07T05:44:32;11.77;;;4.22;;
22230;SDS011;11284;48.086;-1.652;2024-03-07T05:46:58;11.45;;;4.10;;
22230;SDS011;11284;48.086;-1.652;2024-03-07T05:49:24;9.27;;;3.55;;
22230;SDS011;11284;48.086;-1.652;2024-03-07T05:51:50;9.68;;;3.90;;
22230;SDS011;11284;48.086;-1.652;2024-03-07T05:54:16;9.45;;;4.13;;
22230;SDS011;11284;48.086;-1.652;2024-03-07T05:56:42;7.95;;;3.78;;
22230;SDS011;11284;48.086;-1.652;2024-03-07T05:59:08;7.13;;;3.40;;
22230;SDS011;11284;48.086;-1.652;2024-03-07T06:01:35;10.45;;;4.22;;
22230;SDS011;11284;48.086;-1.652;2024-03-07T06:04:01;7.05;;;3.45;;
22230;SDS011;11284;48.086;-1.652;2024-03-07T06:06:27;8.60;;;3.63;;
22230;SDS011;11284;48.086;-1.652;2024-03-07T06:08:56;10.38;;;3.38;;
22230;SDS011;11284;48.086;-1.652;2024-03-07T06:11:22;7.00;;;3.38;;
22230;SDS011;11284;48.086;-1.652;2024-03-07T06:13:48;10.65;;;3.78;;
22230;SDS011;11284;48.086;-1.652;2024-03-07T06:16:14;8.05;;;3.60;;
22230;SDS011;11284;48.086;-1.652;2024-03-07T06:18:41;8.52;;;3.85;;
22230;SDS011;11284;48.086;-1.652;2024-03-07T06:21:07;9.23;;;3.83;;
22230;SDS011;11284;48.086;-1.652;2024-03-07T06:23:33;7.53;;;4.00;;
22230;SDS011;11284;48.086;-1.652;2024-03-07T06:26:00;9.40;;;3.35;;
22230;SDS011;11284;48.086;-1.652;2024-03-07T06:28:26;10.90;;;3.65;;
22230;SDS011;11284;48.086;-1.652;2024-03-07T06:30:55;7.30;;;3.60;;
22230;SDS011;11284;48.086;-1.652;2024-03-07T06:33:22;6.80;;;3.42;;
22230;SDS011;11284;48.086;-1.652;2024-03-07T06:35:48;12.23;;;3.25;;
22230;SDS011;11284;48.086;-1.652;2024-03-07T06:38:14;10.15;;;3.72;;
22230;SDS011;11284;48.086;-1.652;2024-03-07T06:40:40;10.07;;;3.25;;
22230;SDS011;11284;48.086;-1.652;2024-03-07T06:43:09;8.05;;;3.58;;
22230;SDS011;11284;48.086;-1.652;2024-03-07T06:45:36;7.72;;;3.60;;
22230;SDS011;11284;48.086;-1.652;2024-03-07T06:48:05;10.45;;;3.78;;
22230;SDS011;11284;48.086;-1.652;2024-03-07T06:50:37;7.97;;;3.97;;
22230;SDS011;11284;48.086;-1.652;2024-03-07T06:53:04;6.93;;;3.30;;
22230;SDS011;11284;48.086;-1.652;2024-03-07T06:55:32;7.70;;;3.25;;
22230;SDS011;11284;48.086;-1.652;2024-03-07T06:58:01;7.13;;;3.20;;
22230;SDS011;11284;48.086;-1.652;2024-03-07T07:00:30;7.10;;;3.10;;
22230;SDS011;11284;48.086;-1.652;2024-03-07T07:03:00;9.75;;;3.45;;
22230;SDS011;11284;48.086;-1.652;2024-03-07T07:05:28;11.18;;;3.53;;
22230;SDS011;11284;48.086;-1.652;2024-03-07T07:07:55;8.00;;;3.42;;
22230;SDS011;11284;48.086;-1.652;2024-03-07T07:10:21;11.30;;;4.00;;
22230;SDS011;11284;48.086;-1.652;2024-03-07T07:12:49;8.30;;;3.75;;
22230;SDS011;11284;48.086;-1.652;2024-03-07T07:15:17;6.82;;;3.42;;
22230;SDS011;11284;48.086;-1.652;2024-03-07T07:17:47;7.95;;;3.35;;
22230;SDS011;11284;48.086;-1.652;2024-03-07T07:20:16;6.60;;;3.38;;
22230;SDS011;11284;48.086;-1.652;2024-03-07T07:22:43;6.93;;;3.45;;
22230;SDS011;11284;48.086;-1.652;2024-03-07T07:25:09;7.72;;;3.70;;
22230;SDS011;11284;48.086;-1.652;2024-03-07T07:27:43;8.35;;;3.80;;
22230;SDS011;11284;48.086;-1.652;2024-03-07T07:30:10;9.65;;;3.40;;
22230;SDS011;11284;48.086;-1.652;2024-03-07T07:32:36;8.63;;;3.47;;
22230;SDS011;11284;48.086;-1.652;2024-03-07T07:35:02;8.90;;;3.65;;
22230;SDS011;11284;48.086;-1.652;2024-03-07T07:37:30;8.50;;;3.70;;
22230;SDS011;11284;48.086;-1.652;2024-03-07T07:39:56;8.07;;;3.40;;
22230;SDS011;11284;48.086;-1.652;2024-03-07T07:42:22;7.90;;;3.70;;
22230;SDS011;11284;48.086;-1.652;2024-03-07T07:44:48;11.02;;;3.85;;
22230;SDS011;11284;48.086;-1.652;2024-03-07T07:47:14;7.32;;;3.85;;
22230;SDS011;11284;48.086;-1.652;2024-03-07T07:49:40;9.68;;;3.65;;
22230;SDS011;11284;48.086;-1.652;2024-03-07T07:52:06;9.20;;;3.72;;
22230;SDS011;11284;48.086;-1.652;2024-03-07T07:54:33;7.45;;;3.80;;
22230;SDS011;11284;48.086;-1.652;2024-03-07T07:57:00;8.98;;;3.75;;
22230;SDS011;11284;48.086;-1.652;2024-03-07T07:59:26;8.85;;;3.65;;
22230;SDS011;11284;48.086;-1.652;2024-03-07T08:01:52;10.35;;;4.15;;
22230;SDS011;11284;48.086;-1.652;2024-03-07T08:04:20;8.23;;;3.58;;
22230;SDS011;11284;48.086;-1.652;2024-03-07T08:06:46;11.15;;;4.03;;
22230;SDS011;11284;48.086;-1.652;2024-03-07T08:09:12;9.50;;;3.92;;
22230;SDS011;11284;48.086;-1.652;2024-03-07T08:11:41;9.35;;;3.72;;
22230;SDS011;11284;48.086;-1.652;2024-03-07T08:14:07;9.27;;;3.80;;
22230;SDS011;11284;48.086;-1.652;2024-03-07T08:16:33;9.82;;;3.50;;
22230;SDS011;11284;48.086;-1.652;2024-03-07T08:19:00;9.40;;;3.40;;
22230;SDS011;11284;48.086;-1.652;2024-03-07T08:21:28;8.70;;;3.38;;
22230;SDS011;11284;48.086;-1.652;2024-03-07T08:23:54;6.88;;;3.30;;
22230;SDS011;11284;48.086;-1.652;2024-03-07T08:26:20;7.70;;;3.38;;
22230;SDS011;11284;48.086;-1.652;2024-03-07T08:28:46;8.70;;;3.20;;
22230;SDS011;11284;48.086;-1.652;2024-03-07T08:31:12;9.07;;;3.22;;
22230;SDS011;11284;48.086;-1.652;2024-03-07T08:33:38;8.00;;;3.30;;
22230;SDS011;11284;48.086;-1.652;2024-03-07T08:36:04;8.60;;;2.88;;
22230;SDS011;11284;48.086;-1.652;2024-03-07T08:38:32;7.70;;;3.13;;
22230;SDS011;11284;48.086;-1.652;2024-03-07T08:40:58;8.68;;;2.70;;
22230;SDS011;11284;48.086;-1.652;2024-03-07T08:43:24;8.40;;;3.30;;
22230;SDS011;11284;48.086;-1.652;2024-03-07T08:45:52;7.00;;;3.13;;
22230;SDS011;11284;48.086;-1.652;2024-03-07T08:48:18;6.82;;;2.70;;
22230;SDS011;11284;48.086;-1.652;2024-03-07T08:50:44;6.63;;;2.83;;
22230;SDS011;11284;48.086;-1.652;2024-03-07T08:53:10;7.78;;;3.10;;
22230;SDS011;11284;48.086;-1.652;2024-03-07T08:55:36;11.23;;;2.90;;
22230;SDS011;11284;48.086;-1.652;2024-03-07T08:58:02;7.60;;;2.97;;
22230;SDS011;11284;48.086;-1.652;2024-03-07T09:00:30;7.90;;;2.85;;
22230;SDS011;11284;48.086;-1.652;2024-03-07T09:02:57;7.90;;;2.95;;
22230;SDS011;11284;48.086;-1.652;2024-03-07T09:05:24;8.10;;;2.80;;
22230;SDS011;11284;48.086;-1.652;2024-03-07T09:07:53;7.07;;;2.60;;
22230;SDS011;11284;48.086;-1.652;2024-03-07T09:10:20;7.47;;;2.47;;
22230;SDS011;11284;48.086;-1.652;2024-03-07T09:12:46;5.82;;;2.72;;
22230;SDS011;11284;48.086;-1.652;2024-03-07T09:15:15;6.72;;;2.60;;
22230;SDS011;11284;48.086;-1.652;2024-03-07T09:17:46;6.40;;;2.60;;
22230;SDS011;11284;48.086;-1.652;2024-03-07T09:20:12;6.60;;;2.78;;
22230;SDS011;11284;48.086;-1.652;2024-03-07T09:22:43;7.70;;;2.70;;
22230;SDS011;11284;48.086;-1.652;2024-03-07T09:25:10;7.53;;;2.30;;
22230;SDS011;11284;48.086;-1.652;2024-03-07T09:27:37;4.90;;;1.98;;
22230;SDS011;11284;48.086;-1.652;2024-03-07T09:30:05;8.43;;;2.30;;
22230;SDS011;11284;48.086;-1.652;2024-03-07T09:32:36;5.63;;;2.50;;
22230;SDS011;11284;48.086;-1.652;2024-03-07T09:35:03;7.50;;;2.20;;
22230;SDS011;11284;48.086;-1.652;2024-03-07T09:37:32;7.03;;;2.70;;
22230;SDS011;11284;48.086;-1.652;2024-03-07T09:39:58;8.90;;;2.47;;
22230;SDS011;11284;48.086;-1.652;2024-03-07T09:42:24;5.38;;;2.05;;
22230;SDS011;11284;48.086;-1.652;2024-03-07T09:44:53;6.38;;;1.98;;
22230;SDS011;11284;48.086;-1.652;2024-03-07T09:47:21;7.18;;;2.40;;
22230;SDS011;11284;48.086;-1.652;2024-03-07T09:49:47;5.70;;;2.20;;
22230;SDS011;11284;48.086;-1.652;2024-03-07T09:52:13;6.88;;;2.03;;
22230;SDS011;11284;48.086;-1.652;2024-03-07T09:54:40;7.90;;;2.40;;
22230;SDS011;11284;48.086;-1.652;2024-03-07T09:57:06;7.35;;;1.92;;
22230;SDS011;11284;48.086;-1.652;2024-03-07T09:59:34;4.13;;;1.52;;
22230;SDS011;11284;48.086;-1.652;2024-03-07T10:02:05;5.20;;;1.80;;
22230;SDS011;11284;48.086;-1.652;2024-03-07T10:04:44;7.55;;;1.90;;
22230;SDS011;11284;48.086;-1.652;2024-03-07T10:07:10;5.15;;;1.75;;
22230;SDS011;11284;48.086;-1.652;2024-03-07T10:09:39;3.97;;;1.60;;
22230;SDS011;11284;48.086;-1.652;2024-03-07T10:12:08;7.45;;;1.73;;
22230;SDS011;11284;48.086;-1.652;2024-03-07T10:14:50;5.68;;;2.05;;
22230;SDS011;11284;48.086;-1.652;2024-03-07T10:17:16;4.65;;;1.70;;
22230;SDS011;11284;48.086;-1.652;2024-03-07T10:19:46;7.00;;;1.73;;
22230;SDS011;11284;48.086;-1.652;2024-03-07T10:22:13;5.38;;;2.03;;
22230;SDS011;11284;48.086;-1.652;2024-03-07T10:24:39;6.32;;;2.00;;
22230;SDS011;11284;48.086;-1.652;2024-03-07T10:27:05;6.95;;;1.90;;
22230;SDS011;11284;48.086;-1.652;2024-03-07T10:29:31;5.50;;;1.88;;
22230;SDS011;11284;48.086;-1.652;2024-03-07T10:31:57;4.25;;;1.60;;
22230;SDS011;11284;48.086;-1.652;2024-03-07T10:34:23;5.70;;;1.80;;
22230;SDS011;11284;48.086;-1.652;2024-03-07T10:36:49;4.93;;;1.30;;
22230;SDS011;11284;48.086;-1.652;2024-03-07T10:39:17;5.70;;;1.63;;
22230;SDS011;11284;48.086;-1.652;2024-03-07T10:41:47;6.25;;;1.90;;
22230;SDS011;11284;48.086;-1.652;2024-03-07T10:44:25;5.63;;;1.60;;
22230;SDS011;11284;48.086;-1.652;2024-03-07T10:46:54;7.63;;;1.60;;
22230;SDS011;11284;48.086;-1.652;2024-03-07T10:49:20;5.53;;;1.52;;
22230;SDS011;11284;48.086;-1.652;2024-03-07T10:51:53;5.53;;;1.77;;
22230;SDS011;11284;48.086;-1.652;2024-03-07T10:54:30;5.05;;;1.73;;
22230;SDS011;11284;48.086;-1.652;2024-03-07T10:59:30;5.30;;;1.58;;
22230;SDS011;11284;48.086;-1.652;2024-03-07T11:02:14;4.70;;;1.58;;
22230;SDS011;11284;48.086;-1.652;2024-03-07T11:04:41;6.43;;;2.05;;
22230;SDS011;11284;48.086;-1.652;2024-03-07T11:07:08;6.22;;;1.80;;
22230;SDS011;11284;48.086;-1.652;2024-03-07T11:09:35;5.25;;;1.73;;
22230;SDS011;11284;48.086;-1.652;2024-03-07T11:12:02;8.50;;;1.90;;
22230;SDS011;11284;48.086;-1.652;2024-03-07T11:14:28;4.40;;;1.60;;
22230;SDS011;11284;48.086;-1.652;2024-03-07T11:16:55;6.22;;;1.75;;
22230;SDS011;11284;48.086;-1.652;2024-03-07T11:21:55;5.30;;;1.50;;
22230;SDS011;11284;48.086;-1.652;2024-03-07T11:24:28;2.97;;;1.17;;
22230;SDS011;11284;48.086;-1.652;2024-03-07T11:26:56;5.75;;;1.40;;
22230;SDS011;11284;48.086;-1.652;2024-03-07T11:29:59;3.67;;;1.20;;
22230;SDS011;11284;48.086;-1.652;2024-03-07T11:32:18;4.30;;;1.20;;
22230;SDS011;11284;48.086;-1.652;2024-03-07T11:34:46;3.83;;;1.33;;
22230;SDS011;11284;48.086;-1.652;2024-03-07T11:40:13;4.32;;;1.45;;
22230;SDS011;11284;48.086;-1.652;2024-03-07T11:42:46;5.43;;;1.73;;
22230;SDS011;11284;48.086;-1.652;2024-03-07T11:45:13;3.63;;;1.10;;
22230;SDS011;11284;48.086;-1.652;2024-03-07T11:47:58;3.38;;;1.42;;
22230;SDS011;11284;48.086;-1.652;2024-03-07T11:50:43;3.75;;;1.25;;
22230;SDS011;11284;48.086;-1.652;2024-03-07T11:53:09;4.55;;;1.20;;
22230;SDS011;11284;48.086;-1.652;2024-03-07T11:55:35;4.30;;;1.58;;
22230;SDS011;11284;48.086;-1.652;2024-03-07T11:58:14;3.60;;;1.38;;
22230;SDS011;11284;48.086;-1.652;2024-03-07T12:00:44;3.80;;;1.40;;
22230;SDS011;11284;48.086;-1.652;2024-03-07T12:03:11;4.40;;;1.48;;
22230;SDS011;11284;48.086;-1.652;2024-03-07T12:05:42;5.63;;;1.40;;
22230;SDS011;11284;48.086;-1.652;2024-03-07T12:08:08;7.00;;;1.50;;
22230;SDS011;11284;48.086;-1.652;2024-03-07T12:10:35;6.40;;;1.65;;
22230;SDS011;11284;48.086;-1.652;2024-03-07T12:13:01;4.55;;;1.50;;
22230;SDS011;11284;48.086;-1.652;2024-03-07T12:15:27;5.95;;;1.25;;
22230;SDS011;11284;48.086;-1.652;2024-03-07T12:17:53;5.25;;;1.50;;
22230;SDS011;11284;48.086;-1.652;2024-03-07T12:20:20;4.25;;;1.35;;
22230;SDS011;11284;48.086;-1.652;2024-03-07T12:22:50;4.35;;;1.50;;
22230;SDS011;11284;48.086;-1.652;2024-03-07T12:25:21;4.90;;;1.50;;
22230;SDS011;11284;48.086;-1.652;2024-03-07T12:30:28;4.07;;;1.40;;
22230;SDS011;11284;48.086;-1.652;2024-03-07T12:32:57;3.00;;;1.17;;
22230;SDS011;11284;48.086;-1.652;2024-03-07T12:35:23;4.65;;;1.30;;
22230;SDS011;11284;48.086;-1.652;2024-03-07T12:37:50;4.25;;;1.25;;
22230;SDS011;11284;48.086;-1.652;2024-03-07T12:40:16;6.35;;;1.27;;
22230;SDS011;11284;48.086;-1.652;2024-03-07T12:42:46;4.63;;;1.15;;
22230;SDS011;11284;48.086;-1.652;2024-03-07T12:45:12;3.80;;;1.17;;
22230;SDS011;11284;48.086;-1.652;2024-03-07T12:47:42;4.45;;;1.25;;
22230;SDS011;11284;48.086;-1.652;2024-03-07T12:50:09;3.67;;;1.10;;
22230;SDS011;11284;48.086;-1.652;2024-03-07T12:52:36;4.57;;;1.20;;
22230;SDS011;11284;48.086;-1.652;2024-03-07T12:55:02;3.95;;;1.00;;
22230;SDS011;11284;48.086;-1.652;2024-03-07T12:57:31;3.67;;;1.00;;
22230;SDS011;11284;48.086;-1.652;2024-03-07T12:59:57;6.60;;;1.00;;
22230;SDS011;11284;48.086;-1.652;2024-03-07T13:02:23;3.28;;;0.88;;
22230;SDS011;11284;48.086;-1.652;2024-03-07T13:04:52;4.43;;;1.20;;
22230;SDS011;11284;48.086;-1.652;2024-03-07T13:07:18;3.03;;;0.70;;
22230;SDS011;11284;48.086;-1.652;2024-03-07T13:09:44;3.72;;;0.90;;
22230;SDS011;11284;48.086;-1.652;2024-03-07T13:12:13;3.88;;;0.82;;
22230;SDS011;11284;48.086;-1.652;2024-03-07T13:14:40;4.65;;;1.10;;
22230;SDS011;11284;48.086;-1.652;2024-03-07T13:17:08;3.15;;;0.80;;
22230;SDS011;11284;48.086;-1.652;2024-03-07T13:19:34;2.78;;;0.80;;
22230;SDS011;11284;48.086;-1.652;2024-03-07T13:22:03;5.10;;;1.30;;
22230;SDS011;11284;48.086;-1.652;2024-03-07T13:24:31;3.70;;;0.93;;
22230;SDS011;11284;48.086;-1.652;2024-03-07T13:27:00;3.05;;;0.73;;
22230;SDS011;11284;48.086;-1.652;2024-03-07T13:29:26;5.03;;;1.00;;
22230;SDS011;11284;48.086;-1.652;2024-03-07T13:31:53;4.28;;;1.00;;
22230;SDS011;11284;48.086;-1.652;2024-03-07T13:34:21;3.17;;;1.10;;
22230;SDS011;11284;48.086;-1.652;2024-03-07T13:36:50;4.97;;;1.25;;
22230;SDS011;11284;48.086;-1.652;2024-03-07T13:39:16;4.68;;;1.80;;
22230;SDS011;11284;48.086;-1.652;2024-03-07T13:41:43;4.03;;;1.40;;
22230;SDS011;11284;48.086;-1.652;2024-03-07T13:44:13;3.53;;;1.10;;
22230;SDS011;11284;48.086;-1.652;2024-03-07T13:46:39;4.68;;;1.40;;
22230;SDS011;11284;48.086;-1.652;2024-03-07T13:49:06;3.83;;;1.30;;
22230;SDS011;11284;48.086;-1.652;2024-03-07T13:51:37;4.63;;;1.40;;
22230;SDS011;11284;48.086;-1.652;2024-03-07T13:54:05;4.47;;;1.38;;
22230;SDS011;11284;48.086;-1.652;2024-03-07T13:59:59;3.55;;;1.20;;
22230;SDS011;11284;48.086;-1.652;2024-03-07T14:07:28;3.97;;;1.67;;
22230;SDS011;11284;48.086;-1.652;2024-03-07T14:18:09;5.35;;;1.70;;
22230;SDS011;11284;48.086;-1.652;2024-03-07T14:31:11;5.32;;;1.40;;
22230;SDS011;11284;48.086;-1.652;2024-03-07T14:36:31;4.50;;;1.60;;
22230;SDS011;11284;48.086;-1.652;2024-03-07T14:38:57;3.90;;;1.30;;
22230;SDS011;11284;48.086;-1.652;2024-03-07T14:41:24;3.28;;;1.27;;
22230;SDS011;11284;48.086;-1.652;2024-03-07T14:44:05;5.38;;;1.40;;
22230;SDS011;11284;48.086;-1.652;2024-03-07T14:46:32;6.07;;;1.60;;
22230;SDS011;11284;48.086;-1.652;2024-03-07T14:48:59;5.18;;;1.50;;
22230;SDS011;11284;48.086;-1.652;2024-03-07T14:51:25;5.95;;;1.63;;
22230;SDS011;11284;48.086;-1.652;2024-03-07T14:53:51;4.07;;;1.50;;
22230;SDS011;11284;48.086;-1.652;2024-03-07T14:56:17;3.55;;;1.30;;
22230;SDS011;11284;48.086;-1.652;2024-03-07T14:58:45;3.83;;;1.30;;
22230;SDS011;11284;48.086;-1.652;2024-03-07T15:01:11;3.60;;;1.17;;
22230;SDS011;11284;48.086;-1.652;2024-03-07T15:03:38;4.13;;;1.45;;
22230;SDS011;11284;48.086;-1.652;2024-03-07T15:06:06;3.10;;;0.90;;
22230;SDS011;11284;48.086;-1.652;2024-03-07T15:08:39;4.95;;;1.50;;
22230;SDS011;11284;48.086;-1.652;2024-03-07T15:11:13;4.50;;;1.15;;
22230;SDS011;11284;48.086;-1.652;2024-03-07T15:13:42;5.10;;;1.33;;